Time;durP1;ratioP1;P1;durP2;ratioP2;P2;SDS_P1;SDS_P2;PMS_P1;PMS_P2;Temp;Humidity;BMP_temperature;BMP_pressure;BME280_temperature;BME280_humidity;BME280_pressure;Samples;Min_cycle;Max_cycle;Signal;HPM_P1;HPM_P2
2021/12/13 00:01:47;;;;;;;32.90;23.65;;;;;;;1.92;100.00;100297.68;1680008;85;21023;-78
2021/12/13 00:04:22;;;;;;;35.08;25.50;;;;;;;1.98;100.00;100302.77;1664635;84;21008;-74
2021/12/13 00:06:53;;;;;;;35.05;23.02;;;;;;;1.99;100.00;100305.26;1688193;83;21046;-73
2021/12/13 00:09:25;;;;;;;36.53;23.52;;;;;;;2.01;100.00;100297.95;1698158;84;20940;-74
2021/12/13 00:11:56;;;;;;;33.35;23.60;;;;;;;2.06;100.00;100296.89;1683526;84;21083;-78
2021/12/13 00:14:33;;;;;;;24.57;18.35;;;;;;;2.06;100.00;100299.55;1670297;86;21003;-75
2021/12/13 00:17:18;;;;;;;30.68;22.65;;;;;;;2.11;100.00;100297.70;1688849;83;21015;-76
2021/12/13 00:19:58;;;;;;;39.10;24.18;;;;;;;2.11;100.00;100297.70;1669197;84;21017;-80
2021/12/13 00:22:31;;;;;;;45.23;28.75;;;;;;;2.07;100.00;100301.70;1694794;83;21007;-79
2021/12/13 00:25:08;;;;;;;43.50;26.50;;;;;;;2.10;100.00;100310.64;1702706;83;21643;-79
2021/12/13 00:27:48;;;;;;;35.35;21.90;;;;;;;2.06;100.00;100298.74;1695008;82;21105;-76
2021/12/13 00:30:43;;;;;;;38.78;26.17;;;;;;;2.10;100.00;100292.90;1699103;83;20999;-75
2021/12/13 00:33:28;;;;;;;37.63;25.70;;;;;;;2.11;100.00;100291.87;1674686;85;21635;-75
2021/12/13 00:36:17;;;;;;;42.13;26.80;;;;;;;2.10;100.00;100292.06;1644244;87;21587;-73
2021/12/13 00:38:48;;;;;;;42.48;29.85;;;;;;;2.11;100.00;100296.38;1662269;84;21060;-76
2021/12/13 00:41:20;;;;;;;40.73;26.42;;;;;;;2.13;100.00;100299.16;1670034;84;21048;-75
2021/12/13 00:43:57;;;;;;;38.90;22.90;;;;;;;2.12;100.00;100295.34;1702863;84;21146;-76
2021/12/13 00:46:25;;;;;;;38.88;25.05;;;;;;;2.14;100.00;100287.55;1697625;82;20991;-78
2021/12/13 00:48:54;;;;;;;36.63;25.95;;;;;;;2.12;100.00;100290.88;1731936;81;21007;-80
2021/12/13 00:51:26;;;;;;;46.10;27.67;;;;;;;2.06;100.00;100280.97;1732320;82;21011;-75
2021/12/13 00:53:56;;;;;;;33.50;24.30;;;;;;;2.01;100.00;100286.52;1718668;82;21038;-77
2021/12/13 00:57:01;;;;;;;39.38;25.92;;;;;;;2.03;100.00;100283.17;1714763;82;21398;-74
2021/12/13 00:59:41;;;;;;;40.38;27.75;;;;;;;2.04;100.00;100284.83;1674203;85;21092;-76
2021/12/13 01:02:18;;;;;;;35.43;22.32;;;;;;;2.01;100.00;100281.22;1672119;84;21630;-74
2021/12/13 01:05:01;;;;;;;39.30;23.05;;;;;;;1.98;100.00;100277.08;1669894;84;21509;-78
2021/12/13 01:08:01;;;;;;;32.45;22.07;;;;;;;1.99;100.00;100273.92;1697959;84;21069;-76
2021/12/13 01:10:55;;;;;;;39.33;23.50;;;;;;;1.99;100.00;100271.27;1674662;84;21078;-78
2021/12/13 01:13:36;;;;;;;35.17;22.65;;;;;;;2.00;100.00;100271.11;1662243;84;21006;-78
2021/12/13 01:16:23;;;;;;;40.38;22.67;;;;;;;1.99;100.00;100270.77;1689998;84;20983;-81
2021/12/13 01:19:03;;;;;;;35.68;23.12;;;;;;;1.95;100.00;100264.19;1673287;84;21540;-72
2021/12/13 01:21:41;;;;;;;34.67;22.42;;;;;;;1.98;100.00;100279.73;1700272;82;21066;-78
2021/12/13 01:24:16;;;;;;;;;;;;;;;2.01;100.00;100274.58;1734856;82;25896;-72
2021/12/13 01:26:46;;;;;;;32.65;22.27;;;;;;;1.95;100.00;100265.52;1674932;84;21129;-71
2021/12/13 01:29:25;;;;;;;38.80;25.55;;;;;;;1.93;100.00;100260.05;1688153;82;21050;-76
2021/12/13 01:31:59;;;;;;;27.05;20.20;;;;;;;1.97;100.00;100256.03;1711941;82;21616;-76
2021/12/13 01:34:29;;;;;;;34.65;24.55;;;;;;;2.02;100.00;100248.35;1708296;82;21076;-76
2021/12/13 01:37:08;;;;;;;38.38;25.00;;;;;;;2.06;100.00;100241.17;1719704;82;21018;-77
2021/12/13 01:39:32;;;;;;;37.20;25.60;;;;;;;2.07;100.00;100232.22;1701804;84;21164;-78
2021/12/13 01:42:09;;;;;;;44.25;27.82;;;;;;;2.05;100.00;100227.62;1679297;84;20989;-78
2021/12/13 01:44:44;;;;;;;46.77;26.55;;;;;;;2.02;100.00;100216.52;1700550;84;21052;-77
2021/12/13 01:47:14;;;;;;;39.95;23.45;;;;;;;2.06;100.00;100221.28;1703303;84;21051;-78
2021/12/13 01:49:52;;;;;;;38.63;22.05;;;;;;;2.13;100.00;100220.89;1702695;84;21026;-77
2021/12/13 01:52:31;;;;;;;32.75;23.40;;;;;;;2.12;100.00;100214.42;1703094;84;21167;-77
2021/12/13 01:55:01;;;;;;;40.70;28.20;;;;;;;2.10;100.00;100215.95;1662090;85;20997;-76
2021/12/13 01:57:40;;;;;;;41.75;24.67;;;;;;;2.10;100.00;100217.78;1702840;82;21744;-76
2021/12/13 02:00:17;;;;;;;45.55;26.42;;;;;;;2.09;100.00;100225.41;1733161;82;21011;-77
2021/12/13 02:02:46;;;;;;;46.88;29.12;;;;;;;2.07;100.00;100228.73;1665519;83;21566;-77
2021/12/13 02:05:26;;;;;;;41.65;25.62;;;;;;;2.01;100.00;100239.59;1703013;84;21540;-78
2021/12/13 02:08:08;;;;;;;38.15;25.32;;;;;;;2.03;100.00;100227.46;1699344;82;20986;-77
2021/12/13 02:10:45;;;;;;;36.75;25.68;;;;;;;2.03;100.00;100234.92;1673026;84;20949;-75
2021/12/13 02:13:24;;;;;;;45.30;26.35;;;;;;;2.03;100.00;100240.72;1675017;84;21069;-76
2021/12/13 02:18:50;;;;;;;37.80;25.37;;;;;;;2.01;100.00;100241.42;1672285;84;21083;-77
2021/12/13 02:21:30;;;;;;;40.15;25.85;;;;;;;2.04;100.00;100235.75;1703913;82;21057;-77
2021/12/13 02:24:04;;;;;;;39.13;25.85;;;;;;;2.03;100.00;100238.07;1715537;82;21559;-76
2021/12/13 02:26:33;;;;;;;41.25;29.57;;;;;;;2.01;100.00;100225.51;1705190;82;21065;-79
2021/12/13 02:29:16;;;;;;;50.45;31.62;;;;;;;2.04;100.00;100227.28;1703317;84;21046;-76
2021/12/13 02:31:42;;;;;;;;;;;;;;;2.07;100.00;100223.44;1728687;82;21035;-75
2021/12/13 02:34:12;;;;;;;41.33;30.62;;;;;;;2.04;100.00;100223.31;1717246;82;20194;-78
2021/12/13 02:36:47;;;;;;;50.45;30.37;;;;;;;1.99;100.00;100220.37;1694649;84;21029;-80
2021/12/13 02:39:21;;;;;;;44.18;26.95;;;;;;;1.93;100.00;100221.09;1674964;85;21077;-81
2021/12/13 02:41:48;;;;;;;50.83;34.63;;;;;;;1.92;100.00;100231.38;1676586;84;20993;-79
2021/12/13 02:44:23;;;;;;;54.08;35.20;;;;;;;1.94;100.00;100233.36;1691363;82;21108;-83
2021/12/13 02:46:51;;;;;;;51.10;31.07;;;;;;;2.00;100.00;100229.98;1672735;84;21056;-80
2021/12/13 02:49:19;;;;;;;47.62;30.77;;;;;;;2.03;100.00;100224.81;1672963;84;21057;-82
2021/12/13 02:51:50;;;;;;;47.65;28.27;;;;;;;1.99;100.00;100227.50;1693981;82;21598;-75
2021/12/13 02:54:23;;;;;;;50.92;30.43;;;;;;;1.96;100.00;100225.23;1711851;82;21670;-76
2021/12/13 02:57:00;;;;;;;49.63;31.75;;;;;;;1.97;100.00;100225.02;1719923;82;21135;-78
2021/12/13 02:59:30;;;;;;;55.70;32.38;;;;;;;1.96;100.00;100226.55;1674863;85;20985;-79
2021/12/13 03:02:01;;;;;;;48.52;30.82;;;;;;;1.98;100.00;100231.16;1698682;82;21014;-80
2021/12/13 03:04:30;;;;;;;48.20;35.35;;;;;;;2.02;100.00;100231.94;1628304;87;21693;-78
2021/12/13 03:07:05;;;;;;;49.13;32.17;;;;;;;2.04;100.00;100225.96;1645591;84;21058;-77
2021/12/13 03:09:33;;;;;;;47.98;30.68;;;;;;;2.01;100.00;100226.84;1704427;82;21059;-75
2021/12/13 03:12:00;;;;;;;52.58;33.25;;;;;;;2.03;100.00;100217.67;1702215;83;21041;-77
2021/12/13 03:14:49;;;;;;;42.78;28.38;;;;;;;2.05;100.00;100211.70;1701364;84;21015;-78
2021/12/13 03:17:21;;;;;;;50.73;32.58;;;;;;;2.07;100.00;100206.19;1664875;84;21112;-77
2021/12/13 03:19:53;;;;;;;52.70;32.85;;;;;;;2.05;100.00;100203.73;1661549;84;21602;-75
2021/12/13 03:23:02;;;;;;;54.75;30.82;;;;;;;2.06;100.00;100203.23;1700722;84;21516;-77
2021/12/13 03:25:49;;;;;;;54.33;31.68;;;;;;;2.04;100.00;100196.78;1666616;85;21129;-76
2021/12/13 03:28:40;;;;;;;51.68;33.42;;;;;;;2.04;100.00;100203.41;1647932;85;21036;-75
2021/12/13 03:31:13;;;;;;;44.98;28.77;;;;;;;2.06;100.00;100196.61;1647442;85;21061;-77
2021/12/13 03:34:06;;;;;;;48.48;29.63;;;;;;;2.08;100.00;100206.02;1645539;85;21112;-76
2021/12/13 03:37:00;;;;;;;45.25;28.15;;;;;;;2.08;100.00;100203.86;1674923;85;21399;-75
2021/12/13 03:39:31;;;;;;;54.88;36.13;;;;;;;2.10;100.00;100200.54;1674677;85;21069;-76
2021/12/13 03:41:58;;;;;;;51.00;32.73;;;;;;;2.06;100.00;100196.08;1674632;85;20958;-77
2021/12/13 03:44:31;;;;;;;60.35;34.30;;;;;;;2.04;100.00;100191.48;1662657;84;20981;-77
2021/12/13 03:47:08;;;;;;;50.35;31.02;;;;;;;2.08;100.00;100191.42;1702685;84;20993;-77
2021/12/13 03:49:37;;;;;;;48.52;31.02;;;;;;;2.11;100.00;100199.00;1672736;84;21325;-76
2021/12/13 03:52:04;;;;;;;47.75;29.30;;;;;;;2.12;100.00;100198.51;1702883;84;20981;-76
2021/12/13 03:54:30;;;;;;;47.08;29.87;;;;;;;2.08;100.00;100193.25;1702714;84;21105;-76
2021/12/13 03:56:57;;;;;;;58.68;32.25;;;;;;;2.11;100.00;100191.05;1672956;84;21017;-77
2021/12/13 03:59:27;;;;;;;55.17;33.85;;;;;;;2.12;100.00;100198.01;1652087;85;21037;-77
2021/12/13 04:02:01;;;;;;;63.58;34.75;;;;;;;2.11;100.00;100201.66;1678161;84;21842;-78
2021/12/13 04:04:41;;;;;;;46.90;29.57;;;;;;;2.13;100.00;100196.18;1654320;85;21558;-78
2021/12/13 04:07:20;;;;;;;69.95;35.85;;;;;;;2.17;100.00;100194.30;1646098;85;20918;-77
2021/12/13 04:09:50;;;;;;;50.63;36.70;;;;;;;2.17;100.00;100174.41;1697923;82;20990;-76
2021/12/13 04:12:17;;;;;;;59.20;36.10;;;;;;;2.14;100.00;100171.30;1703894;84;21029;-77
2021/12/13 04:14:56;;;;;;;51.10;31.90;;;;;;;2.14;100.00;100162.84;1703316;84;21559;-75
2021/12/13 04:17:44;;;;;;;53.65;33.23;;;;;;;2.07;100.00;100167.22;1672609;84;21001;-73
2021/12/13 04:20:11;;;;;;;40.15;27.67;;;;;;;2.06;100.00;100163.45;1670230;84;21511;-74
2021/12/13 04:22:39;;;;;;;56.30;32.93;;;;;;;2.03;100.00;100171.25;1667632;85;21084;-78
2021/12/13 04:25:16;;;;;;;56.75;34.40;;;;;;;2.00;100.00;100173.45;1699497;84;21006;-77
2021/12/13 04:27:59;;;;;;;50.38;32.70;;;;;;;1.99;100.00;100180.59;1702930;84;21550;-75
2021/12/13 04:30:36;;;;;;;59.63;32.58;;;;;;;2.01;100.00;100181.73;1711103;82;21630;-79
2021/12/13 04:33:14;;;;;;;54.25;33.50;;;;;;;2.04;100.00;100178.71;1669415;85;21124;-78
2021/12/13 04:35:41;;;;;;;48.98;31.82;;;;;;;2.08;100.00;100184.79;1686574;84;21073;-74
2021/12/13 04:38:08;;;;;;;52.05;33.90;;;;;;;2.06;100.00;100186.79;1645308;85;21061;-75
2021/12/13 04:40:40;;;;;;;54.63;32.78;;;;;;;2.03;100.00;100187.17;1712813;82;21182;-75
2021/12/13 04:43:11;;;;;;;59.33;33.92;;;;;;;2.01;100.00;100185.22;1727310;82;21010;-75
2021/12/13 04:45:48;;;;;;;48.33;30.10;;;;;;;2.00;100.00;100180.91;1673848;85;21037;-73
2021/12/13 04:48:18;;;;;;;65.37;33.35;;;;;;;2.03;100.00;100181.03;1674789;85;21038;-76
2021/12/13 04:50:57;;;;;;;54.42;31.27;;;;;;;2.06;100.00;100189.44;1716277;82;20998;-77
2021/12/13 04:53:28;;;;;;;60.60;36.05;;;;;;;2.05;100.00;100191.80;1724499;82;21144;-76
2021/12/13 04:55:56;;;;;;;57.50;36.30;;;;;;;2.12;100.00;100195.85;1731905;82;21506;-76
2021/12/13 04:58:22;;;;;;;66.77;35.43;;;;;;;2.22;100.00;100207.52;1722191;81;21025;-74
2021/12/13 05:00:53;;;;;;;67.78;34.90;;;;;;;2.25;100.00;100198.71;1723393;82;21105;-75
2021/12/13 05:03:23;;;;;;;54.18;30.88;;;;;;;2.28;100.00;100202.81;1668523;84;21143;-75
2021/12/13 05:05:49;;;;;;;68.55;37.08;;;;;;;2.26;100.00;100209.63;1674693;85;21983;-76
2021/12/13 05:08:17;;;;;;;71.80;40.05;;;;;;;2.24;100.00;100203.70;1668939;84;22398;-75
2021/12/13 05:10:47;;;;;;;74.00;45.63;;;;;;;2.19;100.00;100194.95;1723391;82;21109;-77
2021/12/13 05:13:22;;;;;;;71.12;41.80;;;;;;;2.17;100.00;100189.50;1732097;82;21092;-76
2021/12/13 05:16:00;;;;;;;74.80;42.15;;;;;;;2.27;100.00;100183.91;1732610;82;21048;-75
2021/12/13 05:18:30;;;;;;;71.30;39.63;;;;;;;2.29;100.00;100189.37;1714528;82;21061;-76
2021/12/13 05:21:01;;;;;;;52.10;34.58;;;;;;;2.37;100.00;100201.20;1717276;82;21041;-75
2021/12/13 05:23:30;;;;;;;55.80;35.75;;;;;;;2.37;100.00;100205.69;1701884;84;21045;-77
2021/12/13 05:26:05;;;;;;;49.58;33.73;;;;;;;2.29;100.00;100203.14;1668722;84;21045;-75
2021/12/13 05:28:49;;;;;;;63.68;35.40;;;;;;;2.27;100.00;100196.68;1668518;85;21065;-74
2021/12/13 05:31:21;;;;;;;44.30;31.17;;;;;;;2.19;100.00;100200.77;1725766;82;21376;-75
2021/12/13 05:33:51;;;;;;;48.33;31.75;;;;;;;2.12;100.00;100196.68;1732121;82;21054;-74
2021/12/13 05:36:25;;;;;;;54.85;29.23;;;;;;;2.12;100.00;100191.88;1701477;82;21058;-76
2021/12/13 05:39:09;;;;;;;52.43;30.02;;;;;;;2.05;100.00;100194.45;1706615;82;21041;-76
2021/12/13 05:41:37;;;;;;;54.08;27.95;;;;;;;2.01;100.00;100197.16;1731743;82;21065;-75
2021/12/13 05:44:10;;;;;;;53.00;28.42;;;;;;;1.95;100.00;100192.57;1703081;82;21829;-75
2021/12/13 05:46:41;;;;;;;54.60;31.12;;;;;;;1.95;100.00;100193.89;1672686;84;21681;-74
2021/12/13 05:49:12;;;;;;;50.17;29.10;;;;;;;1.94;100.00;100193.56;1702987;84;21065;-75
2021/12/13 05:51:42;;;;;;;59.93;30.60;;;;;;;1.94;100.00;100201.53;1695292;82;21018;-76
2021/12/13 05:54:29;;;;;;;55.23;32.10;;;;;;;1.95;100.00;100200.53;1732478;82;21022;-75
2021/12/13 05:57:10;;;;;;;48.63;26.30;;;;;;;1.92;100.00;100194.24;1731678;82;21011;-75
2021/12/13 05:59:42;;;;;;;54.10;30.15;;;;;;;1.93;100.00;100199.05;1715842;82;21059;-76
2021/12/13 06:02:15;;;;;;;54.93;28.45;;;;;;;1.93;100.00;100214.95;1701888;84;21587;-77
2021/12/13 06:05:15;;;;;;;56.90;31.62;;;;;;;1.94;100.00;100216.11;1652158;84;20998;-76
2021/12/13 06:07:46;;;;;;;45.40;27.75;;;;;;;1.94;100.00;100221.92;1666694;86;21096;-75
2021/12/13 06:10:15;;;;;;;61.42;32.65;;;;;;;1.95;100.00;100236.33;1623999;85;21810;-74
2021/12/13 06:12:57;;;;;;;53.85;30.92;;;;;;;1.92;100.00;100229.25;1645516;85;20996;-76
2021/12/13 06:15:34;;;;;;;59.83;34.43;;;;;;;1.92;100.00;100239.33;1674443;85;21099;-73
2021/12/13 06:18:12;;;;;;;54.73;30.90;;;;;;;1.90;100.00;100247.16;1720184;82;21041;-73
2021/12/13 06:20:57;;;;;;;47.60;26.50;;;;;;;1.86;100.00;100244.55;1707118;82;20989;-75
2021/12/13 06:23:28;;;;;;;44.08;27.67;;;;;;;1.79;100.00;100240.45;1645595;85;21748;-75
2021/12/13 06:26:02;;;;;;;44.95;26.07;;;;;;;1.75;100.00;100240.50;1647867;85;21097;-76
2021/12/13 06:28:40;;;;;;;41.08;26.68;;;;;;;1.70;100.00;100234.41;1729350;82;20993;-75
2021/12/13 06:31:15;;;;;;;37.93;26.55;;;;;;;1.73;100.00;100239.34;1706862;82;21519;-75
2021/12/13 06:33:58;;;;;;;43.13;28.50;;;;;;;1.75;100.00;100239.17;1650299;84;21065;-75
2021/12/13 06:36:45;;;;;;;49.65;26.77;;;;;;;1.79;100.00;100243.11;1696140;82;21139;-79
2021/12/13 06:39:20;;;;;;;46.58;31.12;;;;;;;1.83;100.00;100246.22;1680528;84;21009;-79
2021/12/13 06:41:50;;;;;;;53.85;28.55;;;;;;;1.78;100.00;100241.45;1679959;84;21550;-79
2021/12/13 06:44:32;;;;;;;42.85;27.67;;;;;;;1.80;100.00;100241.28;1674704;85;21045;-79
2021/12/13 06:47:12;;;;;;;42.40;25.85;;;;;;;1.82;100.00;100242.77;1672888;85;21074;-79
2021/12/13 06:49:54;;;;;;;55.60;30.23;;;;;;;1.85;100.00;100244.22;1655521;82;21585;-82
2021/12/13 06:52:32;;;;;;;41.58;27.42;;;;;;;1.84;100.00;100243.39;1674634;85;21138;-79
2021/12/13 06:55:05;;;;;;;39.83;27.75;;;;;;;1.86;100.00;100241.40;1674970;84;21076;-79
2021/12/13 06:57:39;;;;;;;53.05;31.80;;;;;;;1.88;100.00;100235.89;1690785;83;21526;-80
2021/12/13 07:00:23;;;;;;;43.80;28.05;;;;;;;1.87;100.00;100239.58;1703268;82;21022;-81
2021/12/13 07:02:56;;;;;;;56.83;31.37;;;;;;;1.88;100.00;100230.59;1729027;82;21091;-79
2021/12/13 07:05:31;;;;;;;41.77;25.55;;;;;;;1.91;100.00;100238.20;1699645;84;21555;-78
2021/12/13 07:08:10;;;;;;;56.70;30.57;;;;;;;2.00;100.00;100231.81;1732196;82;21495;-78
2021/12/13 07:10:44;;;;;;;50.83;30.10;;;;;;;1.98;100.00;100226.67;1703655;82;20989;-78
2021/12/13 07:13:35;;;;;;;56.77;31.10;;;;;;;1.93;100.00;100226.89;1691634;84;21097;-80
2021/12/13 07:16:15;;;;;;;47.10;29.82;;;;;;;1.90;100.00;100224.61;1674790;85;21285;-75
2021/12/13 07:18:54;;;;;;;55.08;31.33;;;;;;;1.86;100.00;100227.31;1644587;84;21006;-78
2021/12/13 07:21:28;;;;;;;49.20;29.87;;;;;;;1.85;100.00;100226.98;1726309;82;21057;-78
2021/12/13 07:24:07;;;;;;;46.15;28.75;;;;;;;1.85;100.00;100225.66;1645546;85;21081;-78
2021/12/13 07:26:49;;;;;;;47.78;31.55;;;;;;;1.85;100.00;100228.31;1695663;82;21054;-76
2021/12/13 07:29:27;;;;;;;45.70;27.87;;;;;;;1.86;100.00;100225.48;1704190;82;21563;-77
2021/12/13 07:32:26;;;;;;;48.45;26.60;;;;;;;1.80;100.00;100227.52;1690249;83;21094;-75
2021/12/13 07:35:16;;;;;;;46.42;26.17;;;;;;;1.78;100.00;100223.39;1702193;84;21015;-78
2021/12/13 07:37:57;;;;;;;48.05;30.97;;;;;;;1.75;100.00;100218.78;1678545;82;21084;-78
2021/12/13 07:40:35;;;;;;;39.60;28.38;;;;;;;1.75;100.00;100212.66;1667436;84;21100;-76
2021/12/13 07:43:30;;;;;;;42.98;24.77;;;;;;;1.71;100.00;100202.92;1692291;84;21149;-75
2021/12/13 07:46:11;;;;;;;41.08;26.35;;;;;;;1.71;100.00;100212.70;1681480;84;20965;-76
2021/12/13 07:48:46;;;;;;;46.23;30.75;;;;;;;1.66;100.00;100194.68;1672794;85;21062;-75
2021/12/13 07:51:22;;;;;;;36.28;24.95;;;;;;;1.68;100.00;100194.48;1672033;83;21061;-75
2021/12/13 07:53:59;;;;;;;37.28;24.30;;;;;;;1.67;100.00;100204.28;1703322;83;20975;-75
2021/12/13 07:56:37;;;;;;;48.75;29.72;;;;;;;1.65;100.00;100198.83;1732196;83;21281;-77
2021/12/13 07:59:29;;;;;;;36.30;22.45;;;;;;;1.59;100.00;100203.02;1703091;83;21596;-78
2021/12/13 08:02:08;;;;;;;34.83;22.50;;;;;;;1.62;100.00;100198.70;1703803;84;20946;-77
2021/12/13 08:04:44;;;;;;;37.75;22.13;;;;;;;1.65;100.00;100200.98;1703342;84;20982;-78
2021/12/13 08:07:15;;;;;;;36.60;22.10;;;;;;;1.70;100.00;100200.44;1701769;84;21094;-80
2021/12/13 08:10:01;;;;;;;41.65;26.65;;;;;;;1.73;100.00;100206.70;1625425;87;21047;-77
2021/12/13 08:12:33;;;;;;;44.20;25.68;;;;;;;1.73;100.00;100219.45;1675943;85;21542;-77
2021/12/13 08:15:19;;;;;;;33.13;20.65;;;;;;;1.79;100.00;100225.88;1673132;85;21018;-78
2021/12/13 08:17:58;;;;;;;50.65;28.35;;;;;;;1.84;100.00;100222.18;1615348;87;21075;-78
2021/12/13 08:20:47;;;;;;;41.95;26.48;;;;;;;1.80;100.00;100230.67;1675628;85;21061;-76
2021/12/13 08:23:24;;;;;;;41.98;26.62;;;;;;;1.73;100.00;100237.19;1648920;84;21555;-79
2021/12/13 08:25:54;;;;;;;51.83;29.32;;;;;;;1.74;100.00;100233.54;1675596;84;21064;-76
2021/12/13 08:28:38;;;;;;;47.20;26.33;;;;;;;1.70;100.00;100226.95;1667003;84;21017;-76
2021/12/13 08:31:10;;;;;;;45.83;24.02;;;;;;;1.69;100.00;100234.08;1706466;83;21058;-79
2021/12/13 08:33:45;;;;;;;53.05;30.00;;;;;;;1.75;100.00;100225.91;1672506;84;21079;-79
2021/12/13 08:36:18;;;;;;;33.33;24.18;;;;;;;1.80;100.00;100226.70;1603372;85;21824;-77
2021/12/13 08:38:53;;;;;;;44.25;31.52;;;;;;;1.81;100.00;100236.31;1605684;86;21062;-76
2021/12/13 08:41:25;;;;;;;48.38;29.80;;;;;;;1.78;100.00;100233.50;1661488;84;21011;-77
2021/12/13 08:44:06;;;;;;;55.33;32.08;;;;;;;1.80;100.00;100235.98;1640912;85;21067;-77
2021/12/13 08:46:44;;;;;;;55.80;33.10;;;;;;;1.77;100.00;100229.72;1658545;86;21516;-77
2021/12/13 08:49:44;;;;;;;48.70;27.85;;;;;;;1.78;100.00;100242.77;1656295;84;21150;-80
2021/12/13 08:52:34;;;;;;;53.40;30.37;;;;;;;1.78;100.00;100240.13;1664533;86;21063;-76
2021/12/13 08:55:20;;;;;;;46.30;29.12;;;;;;;1.77;100.00;100236.34;1636506;86;21087;-77
2021/12/13 08:57:57;;;;;;;39.08;23.67;;;;;;;1.78;100.00;100238.80;1661552;86;21050;-78
2021/12/13 09:00:54;;;;;;;36.98;21.95;;;;;;;1.70;100.00;100234.41;1654026;84;21082;-79
2021/12/13 09:03:35;;;;;;;44.35;25.65;;;;;;;1.67;100.00;100237.42;1654331;86;21124;-75
2021/12/13 09:06:19;;;;;;;46.68;24.43;;;;;;;1.63;100.00;100222.06;1610334;87;21088;-76
2021/12/13 09:09:07;;;;;;;43.68;26.48;;;;;;;1.67;100.00;100215.39;1632089;86;21105;-76
2021/12/13 09:11:58;;;;;;;47.40;24.77;;;;;;;1.70;100.00;100220.32;1630138;84;21087;-76
2021/12/13 09:14:38;;;;;;;46.02;23.92;;;;;;;1.79;100.00;100216.59;1614485;87;21002;-76
2021/12/13 09:17:21;;;;;;;53.02;28.42;;;;;;;1.81;100.00;100210.62;1649519;86;21230;-77
2021/12/13 09:19:50;;;;;;;52.65;31.87;;;;;;;1.82;100.00;100210.12;1622498;84;21059;-78
2021/12/13 09:31:09;;;;;;;40.43;25.05;;;;;;;1.84;100.00;100204.11;1660447;84;21108;-79
2021/12/13 09:33:50;;;;;;;41.65;24.57;;;;;;;1.74;100.00;100211.83;1706674;82;21177;-78
2021/12/13 09:36:23;;;;;;;45.03;25.50;;;;;;;1.77;100.00;100205.86;1751162;82;21673;-79
2021/12/13 09:39:06;;;;;;;53.68;30.55;;;;;;;1.78;100.00;100213.61;1751160;82;20993;-77
2021/12/13 09:41:37;;;;;;;47.50;26.60;;;;;;;1.84;100.00;100210.24;1741909;82;21053;-81
2021/12/13 09:44:19;;;;;;;45.70;27.27;;;;;;;1.86;100.00;100209.57;1721474;83;21612;-79
2021/12/13 09:47:07;;;;;;;40.33;25.32;;;;;;;1.88;100.00;100212.02;1700503;83;21259;-78
2021/12/13 09:49:39;;;;;;;42.55;27.30;;;;;;;1.83;100.00;100205.94;1744733;82;20962;-77
2021/12/13 09:52:23;;;;;;;45.73;26.85;;;;;;;1.81;100.00;100204.48;1712397;82;21099;-78
2021/12/13 09:55:04;;;;;;;48.90;29.05;;;;;;;1.81;100.00;100204.48;1700458;83;21017;-78
2021/12/13 09:57:56;;;;;;;45.08;26.48;;;;;;;1.83;100.00;100203.28;1689682;84;21069;-78
2021/12/13 10:00:44;;;;;;;56.00;27.90;;;;;;;1.83;100.00;100195.83;1675774;83;21122;-75
2021/12/13 10:03:28;;;;;;;69.55;29.20;;;;;;;1.79;100.00;100186.59;1650274;84;21065;-75
2021/12/13 10:06:01;;;;;;;57.15;29.70;;;;;;;1.81;100.00;100184.59;1663757;84;21100;-74
2021/12/13 10:08:32;;;;;;;58.02;29.48;;;;;;;1.84;100.00;100204.94;1669104;84;21209;-74
2021/12/13 10:11:04;;;;;;;58.63;30.85;;;;;;;1.85;100.00;100211.07;1670993;83;21077;-80
2021/12/13 10:13:36;;;;;;;71.77;35.50;;;;;;;1.84;100.00;100213.39;1691892;83;21095;-79
2021/12/13 10:16:10;;;;;;;71.33;37.75;;;;;;;1.77;100.00;100201.88;1659519;84;21612;-77
2021/12/13 10:18:41;;;;;;;54.77;33.50;;;;;;;1.75;100.00;100208.67;1695548;83;21050;-76
2021/12/13 10:21:27;;;;;;;51.42;29.52;;;;;;;1.77;100.00;100193.42;1684349;83;21060;-77
2021/12/13 10:24:17;;;;;;;57.40;31.82;;;;;;;1.79;100.00;100194.05;1658815;84;21620;-73
2021/12/13 10:26:44;;;;;;;46.68;27.75;;;;;;;1.85;100.00;100201.29;1688252;83;21861;-73
2021/12/13 10:29:12;;;;;;;48.98;28.27;;;;;;;1.90;100.00;100192.29;1718406;82;21232;-75
2021/12/13 10:31:57;;;;;;;48.55;29.60;;;;;;;1.90;100.00;100201.57;1699379;82;21036;-75
2021/12/13 10:34:31;;;;;;;38.78;25.15;;;;;;;1.92;100.00;100190.27;1704389;82;21587;-77
2021/12/13 10:37:03;;;;;;;39.63;24.60;;;;;;;1.94;100.00;100200.70;1686018;84;21018;-74
2021/12/13 10:39:40;;;;;;;42.60;26.68;;;;;;;2.00;100.00;100206.61;1672145;84;21078;-75
2021/12/13 10:42:11;;;;;;;41.40;26.42;;;;;;;2.03;100.00;100203.09;1690967;84;21543;-76
2021/12/13 10:44:44;;;;;;;40.90;23.85;;;;;;;2.07;100.00;100200.38;1669244;82;21091;-80
2021/12/13 10:47:10;;;;;;;48.20;29.60;;;;;;;2.01;100.00;100202.46;1663492;84;21594;-75
2021/12/13 10:49:40;;;;;;;38.33;24.57;;;;;;;1.97;100.00;100196.34;1699574;84;21059;-75
2021/12/13 10:52:14;;;;;;;46.98;29.95;;;;;;;1.95;100.00;100189.09;1674963;84;21534;-75
2021/12/13 10:54:51;;;;;;;54.53;27.45;;;;;;;1.92;100.00;100194.77;1676563;82;21624;-74
2021/12/13 10:57:23;;;;;;;41.45;24.98;;;;;;;1.96;100.00;100191.57;1691702;84;21069;-77
2021/12/13 10:59:49;;;;;;;39.53;25.05;;;;;;;1.94;100.00;100201.53;1697755;82;21072;-79
2021/12/13 11:02:21;;;;;;;33.90;20.68;;;;;;;1.93;100.00;100199.05;1702961;84;21578;-79
2021/12/13 11:04:55;;;;;;;40.15;24.95;;;;;;;1.91;100.00;100197.92;1662174;84;21318;-81
2021/12/13 11:07:25;;;;;;;29.82;20.77;;;;;;;1.89;100.00;100201.74;1621348;87;21649;-79
2021/12/13 11:09:55;;;;;;;38.60;22.73;;;;;;;1.95;100.00;100195.72;1692014;84;21077;-82
2021/12/13 11:12:35;;;;;;;28.57;18.05;;;;;;;1.97;100.00;100183.91;1693416;83;21041;-76
2021/12/13 11:15:06;;;;;;;41.15;24.43;;;;;;;2.03;100.00;100190.32;1715985;83;21109;-75
2021/12/13 11:17:33;;;;;;;33.25;20.92;;;;;;;2.01;100.00;100182.56;1678624;83;21069;-75
2021/12/13 11:20:05;;;;;;;34.80;21.77;;;;;;;2.00;100.00;100180.09;1685741;83;21002;-75
2021/12/13 11:22:34;;;;;;;34.75;19.75;;;;;;;1.99;100.00;100181.09;1675279;84;21073;-76
2021/12/13 11:25:06;;;;;;;35.05;22.73;;;;;;;2.01;100.00;100173.78;1696614;83;21158;-81
2021/12/13 11:27:34;;;;;;;26.35;16.52;;;;;;;2.04;100.00;100180.86;1677743;84;21061;-79
2021/12/13 11:30:08;;;;;;;39.00;24.92;;;;;;;2.06;100.00;100177.51;1670578;84;21111;-80
2021/12/13 11:32:58;;;;;;;33.85;23.60;;;;;;;2.09;100.00;100177.66;1670235;84;21092;-76
2021/12/13 11:36:03;;;;;;;48.20;28.57;;;;;;;2.12;100.00;100175.95;1683551;84;21061;-75
2021/12/13 11:39:12;;;;;;;63.07;36.30;;;;;;;2.16;100.00;100163.97;1861981;76;22721;-76
2021/12/13 11:42:14;;;;;;;51.42;29.98;;;;;;;2.10;100.00;100160.24;1853733;77;21006;-75
2021/12/13 11:45:12;;;;;;;47.75;27.60;;;;;;;2.11;100.00;100160.54;1794846;78;21548;-77
2021/12/13 11:48:07;;;;;;;44.85;25.05;;;;;;;2.12;100.00;100159.54;1824758;78;20968;-77
2021/12/13 11:51:02;;;;;;;34.10;23.25;;;;;;;2.14;100.00;100162.02;1748235;77;21497;-78
2021/12/13 11:54:01;;;;;;;40.95;23.07;;;;;;;2.09;100.00;100155.94;1827811;77;20923;-78
2021/12/13 11:57:16;;;;;;;31.65;20.55;;;;;;;2.07;100.00;100165.89;1780080;75;20853;-79
2021/12/13 12:00:28;;;;;;;38.70;22.90;;;;;;;2.08;100.00;100164.07;1881974;75;21865;-85
2021/12/13 12:03:51;;;;;;;42.80;24.77;;;;;;;2.05;100.00;100172.41;1816650;78;20940;-83
2021/12/13 12:07:16;;;;;;;55.83;30.97;;;;;;;2.01;100.00;100169.80;1849520;77;20900;-82
2021/12/13 12:10:20;;;;;;;62.90;34.78;;;;;;;2.02;100.00;100174.91;1810033;77;20998;-82